This is the latest recevied weather packets stored in our database for station/object KE0FIN. If no packets are shown the sender has not sent any weather packets the latest 1 day(s).
| Time | Temp. | Humidity | Pressure | Rain* | Wind** | Luminosity | Snow |
|---|---|---|---|---|---|---|---|
| 1778096783 | 16.11° C | 43% | 1070.4 hPa | 0 mm | - | 666 W/m² | - |
| 1778095874 | 15.56° C | 42% | 1070.4 hPa | 0 mm | - | 629 W/m² | - |
| 1778095571 | 15.56° C | 44% | 1070.3 hPa | 0 mm | - | 600 W/m² | - |
| 1778094357 | 15.56° C | 44% | 1070.4 hPa | 0 mm | - | 767 W/m² | - |
| 1778093751 | 14.44° C | 45% | 1070.3 hPa | 0 mm | - | 89 W/m² | - |
| 1778090720 | 13.89° C | 50% | 1070.8 hPa | 0 mm | - | 291 W/m² | - |
| 1778089204 | 12.78° C | 57% | 1071.3 hPa | 0 mm | - | 242 W/m² | - |
| 1778087992 | 12.78° C | 59% | 1071.3 hPa | 0 mm | - | 270 W/m² | - |
| 1778087084 | 11.67° C | 67% | 1071.3 hPa | 0 mm | - | 250 W/m² | - |
| 1778084955 | 10.56° C | 72% | 1071.3 hPa | 0 mm | - | 224 W/m² | - |
| 1778084653 | 10.56° C | 76% | 1071.1 hPa | 0 mm | - | 181 W/m² | - |
| 1778081708 | 8.89° C | 81% | 1071.7 hPa | 0 mm | - | 89 W/m² | - |
| 1778081102 | 8.89° C | 83% | 1071.3 hPa | 0 mm | - | 100 W/m² | - |
| 1778080800 | 8.89° C | 82% | 1071.2 hPa | 0 mm | - | 107 W/m² | - |
| 1778079588 | 8.89° C | 86% | 1071.3 hPa | 0 mm | - | 84 W/m² | - |
| 1778079284 | 8.89° C | 86% | 1071.6 hPa | 0 mm | - | 74 W/m² | - |
| 1778078982 | 8.89° C | 86% | 1071.3 hPa | 0 mm | - | 69 W/m² | - |
| 1778078678 | 8.89° C | 87% | 1070.9 hPa | 0 mm | - | 74 W/m² | - |
| 1778078073 | 8.33° C | 88% | 1070.5 hPa | 0 mm | - | 116 W/m² | - |
| 1778077167 | 7.78° C | 92% | 1070.8 hPa | 0 mm | - | 90 W/m² | - |
| 1778076563 | 7.22° C | 98% | 1071 hPa | 0 mm | - | 52 W/m² | - |
| 1778075046 | 6.67° C | 99% | 1070.4 hPa | 0 mm | - | 71 W/m² | - |
| 1778074743 | 6.67° C | 99% | 1070.4 hPa | 0 mm | - | 52 W/m² | - |
| 1778074136 | 6.67° C | 99% | 1070.7 hPa | 0 mm | - | 41 W/m² | - |
| 1778072621 | 6.11° C | 99% | 1070.4 hPa | 0 mm | - | 23 W/m² | - |
* Rain latest hour (hover to see other rain measurements)
** Current wind speed in m/s (hover to see current wind gust speed)